Rockrimmon, Colorado
Current Conditions -  °F | °C
As of 5:08 AM on Sunday 23 Nov 2014 (Local Time) from KAFF Reporting Station
Light Snow Light Snow  
Wind Chill: 22°   Ceiling: 400
Heat Index: 32°   Visibility: 2.5mi
Dew Point: 30°   Wind: 14mph
Humidity: 93%   Direction: 350°N
Pressure: 29.69"   Gusts: NA
Location:  38.9276°N, 104.856°W
Report Text: KAFF 231208Z AUTO 35012KT 2 1/2SM -SN BR OVC004 00/M01 A2969 RMK AO2 VIS 2 1/2V4 CIG 004V007
Loading
Personal Weather Stations






























Interactive Weather Map New forecast layout! Learn more

10-Day Weather Forecast

Advertisements
Track Severe Weather on mobile